• Join FlightAware (Why Join?)
  • Login
  • US Flag 
10:46AM EDT


 

Airport Tracker/Info


-or-


 

Live Flight TrackerFlight Track Log ✈ N143DE ✈ 23-Oct-2013 ✈ KOUN - KDAL

Flight Track Log - Related Links

Times and Time Zones

All times are in EDT time to prevent confusion due to time zone crossing. See the N143DE flight status page for this flight to view local times or setup timezone preferences in your user account.

Time Position Orientation Groundspeed Altitude Reporting Facility
EDT Latitude Longitude Course Direction KTS MPH feet Rate Location/Type
02:38PM 35.2372 -97.4769 180° South 125 144 1,800  Level Fort Worth Center
02:38PM 35.2164 -97.4769 180° South 143 165 2,700 1,800 Climbing Fort Worth Center
02:40PM 35.1747 -97.4389 143° Southeast 199 229 4,800 1,800 Climbing Fort Worth Center
02:41PM 35.1350 -97.4161 155° Southeast 184 212 6,400 1,980 Climbing Fort Worth Center
02:42PM 35.0933 -97.3983 161° South 156 180 8,700 1,980 Climbing Fort Worth Center
02:43PM 35.0536 -97.3703 150° Southeast 184 212 10,400 1,980 Climbing Fort Worth Center
02:43PM 35.0494 -97.3678 154° Southeast 177 204 10,700 1,260 Climbing Fort Worth Center
02:44PM 35.0142 -97.3400 147° Southeast 203 234 11,700 1,020 Climbing Fort Worth Center
02:45PM 34.9514 -97.3478 186° South 208 239 12,800 1,140 Climbing Fort Worth Center
02:46PM 34.8911 -97.3478 180° South 219 252 14,000 960 Climbing Fort Worth Center
02:47PM 34.8306 -97.2972 146° Southeast 233 268 14,800 540 Climbing Fort Worth Center
02:48PM 34.7678 -97.2467 147° Southeast 246 283 15,100 120 Climbing Fort Worth Center
02:49PM 34.7031 -97.1911 145° Southeast 266 306 15,100  Level Fort Worth Center
02:50PM 34.6342 -97.1308 144° Southeast 287 330 15,100  Level Fort Worth Center
02:51PM 34.5672 -97.0781 147° Southeast 293 337 15,100  Level Fort Worth Center
02:52PM 34.5003 -97.0231 146° Southeast 293 337 15,100  Level Fort Worth Center
02:53PM 34.4333 -96.9653 145° Southeast 293 337 15,100  Level Fort Worth Center
02:54PM 34.3644 -96.9103 147° Southeast 293 337 15,100  Level Fort Worth Center
02:55PM 34.2972 -96.8556 146° Southeast 293 337 15,100  Level Fort Worth Center
02:56PM 34.2303 -96.8006 146° Southeast 293 337 15,100 -600 Level Fort Worth Center
02:57PM 34.1592 -96.7458 148° Southeast 299 344 14,000 -1,200 Descending Fort Worth Center
02:58PM 34.0814 -96.6761 143° Southeast 313 360 12,700 -1,080 Descending Fort Worth Center
02:59PM 33.9978 -96.6444 163° South 313 360 11,900 -840 Descending Fort Worth Center
03:00PM 33.9203 -96.6100 160° South 313 360 11,100 -840 Descending Fort Worth Center
03:01PM 33.8431 -96.5783 161° South 308 354 10,300 -600 Descending Fort Worth Center
03:02PM 33.7656 -96.5464 161° South 303 349 10,000 -180 Descending Fort Worth Center
03:03PM 33.6983 -96.5047 153° Southeast 280 322 10,000  Level Fort Worth Center
03:04PM 33.6253 -96.4756 162° South 274 315 10,000 -300 Level Fort Worth Center
03:05PM 33.5539 -96.4489 163° South 274 315 9,400 -780 Descending Fort Worth Center
03:06PM 33.4828 -96.4222 163° South 269 310 8,500 -1,140 Descending Fort Worth Center
03:07PM 33.4178 -96.3931 159° South 255 293 7,200 -1,260 Descending Fort Worth Center
03:08PM 33.3489 -96.3714 165° South 248 285 6,000 -660 Descending Fort Worth Center
03:09PM 33.2903 -96.3472 161° South 235 270 5,900 -300 Descending Fort Worth Center
03:10PM 33.2444 -96.3828 213° Southwest 197 227 5,500 -480 Descending Fort Worth Center
03:11PM 33.2117 -96.4450 238° Southwest 202 232 5,000 -300 Descending Fort Worth Center
03:12PM 33.1786 -96.5025 236° Southwest 221 254 5,000 -360 Level Fort Worth Center
03:13PM 33.1458 -96.5625 237° Southwest 221 254 4,300 -540 Descending Fort Worth Center
03:14PM 33.1106 -96.6247 236° Southwest 221 254 4,000 -540 Descending Fort Worth Center
03:15PM 33.0817 -96.6794 238° Southwest 216 249 3,300 -540 Descending Fort Worth Center
03:16PM 33.0486 -96.7417 238° Southwest 216 249 3,000 -180 Descending Fort Worth Center
03:17PM 33.0197 -96.7892 234° Southwest 211 243 3,000  Level Fort Worth Center
03:18PM 32.9803 -96.8389 227° Southwest 199 229 3,000 -420 Level Fort Worth Center
03:19PM 32.9469 -96.8786 225° Southwest 193 222 2,200 -600 Descending Fort Worth Center
03:20PM 32.9094 -96.9011 207° Southwest 176 203 1,900 -660 Descending Fort Worth Center
03:21PM 32.8667 -96.8667 146° Southeast 128 147 800 -900 Descending Dallas / Fort Worth TRACON
03:23PM 32.8471 -96.8518 220° Southwest  Level Estimated
03:30PM 32.8471 -96.8518 220° Southwest  Level Estimated